Time;durP1;ratioP1;P1;durP2;ratioP2;P2;SDS_P1;SDS_P2;PMS_P1;PMS_P2;Temp;Humidity;BMP_temperature;BMP_pressure;BME280_temperature;BME280_humidity;BME280_pressure;Samples;Min_cycle;Max_cycle;Signal;HPM_P1;HPM_P2
2023/03/21 02:27:45;;;;;;;32.45;22.33;;;7.30;99.90;;;;;;6236160;22;20452;-79
2023/03/21 02:30:47;;;;;;;28.73;21.70;;;7.30;99.90;;;;;;6241672;23;20408;-79
2023/03/21 02:33:21;;;;;;;31.65;22.95;;;7.20;99.90;;;;;;6239763;22;20757;-79
2023/03/21 02:35:48;;;;;;;33.45;22.58;;;7.10;99.90;;;;;;6243244;22;20396;-79
2023/03/21 02:38:53;;;;;;;36.17;25.00;;;7.00;99.90;;;;;;6238760;22;20369;-79
2023/03/21 02:41:41;;;;;;;29.77;21.80;;;6.90;99.90;;;;;;6239859;22;20838;-79
2023/03/21 02:44:23;;;;;;;32.92;23.10;;;6.80;99.90;;;;;;6240885;22;20369;-79
2023/03/21 02:47:00;;;;;;;32.53;22.45;;;6.70;99.90;;;;;;6241550;23;20691;-79
2023/03/21 02:49:44;;;;;;;32.10;22.23;;;6.70;99.90;;;;;;6240995;22;28391;-79
2023/03/21 02:52:15;;;;;;;32.38;23.73;;;6.60;99.90;;;;;;6240500;22;20389;-79
2023/03/21 02:54:59;;;;;;;31.20;22.58;;;6.60;99.90;;;;;;6241298;23;20380;-79
2023/03/21 02:57:27;;;;;;;30.95;21.70;;;6.60;99.90;;;;;;6240394;22;20854;-80
2023/03/21 03:00:11;;;;;;;30.70;22.67;;;6.60;99.90;;;;;;6241359;23;20846;-80
2023/03/21 03:02:42;;;;;;;29.90;22.38;;;6.60;99.90;;;;;;6240443;22;20943;-79
2023/03/21 03:05:19;;;;;;;30.88;21.55;;;6.60;99.90;;;;;;6241270;23;20364;-78
2023/03/21 03:07:56;;;;;;;32.17;22.52;;;6.50;99.90;;;;;;6240958;22;20684;-79
2023/03/21 03:10:38;;;;;;;31.73;22.08;;;6.50;99.90;;;;;;6239896;22;20431;-79
2023/03/21 03:13:24;;;;;;;35.10;23.38;;;6.40;99.90;;;;;;6240638;23;20369;-78
2023/03/21 03:16:17;;;;;;;28.77;21.52;;;6.40;99.90;;;;;;6240573;22;20959;-79
2023/03/21 03:18:58;;;;;;;37.10;24.65;;;6.40;99.90;;;;;;6239882;22;20373;-79
2023/03/21 03:21:36;;;;;;;31.20;21.60;;;6.30;99.90;;;;;;6240588;23;20699;-79
2023/03/21 03:24:09;;;;;;;33.97;24.58;;;6.40;99.90;;;;;;6240528;22;20753;-78
2023/03/21 03:27:02;;;;;;;33.88;23.13;;;6.30;99.90;;;;;;6240946;23;20459;-79
2023/03/21 03:29:31;;;;;;;35.17;24.87;;;6.30;99.90;;;;;;6221648;22;20377;-79
2023/03/21 03:32:14;;;;;;;36.90;26.73;;;6.30;99.90;;;;;;6242356;23;20369;-78
2023/03/21 03:34:48;;;;;;;35.08;24.92;;;6.20;99.90;;;;;;6241939;23;20660;-78
2023/03/21 03:37:17;;;;;;;33.95;24.27;;;6.10;99.90;;;;;;6242454;23;20676;-78
2023/03/21 03:39:51;;;;;;;31.85;22.75;;;6.00;99.90;;;;;;6241398;22;20376;-78
2023/03/21 03:42:24;;;;;;;31.77;23.45;;;6.00;99.90;;;;;;6241831;23;20369;-78
2023/03/21 03:44:55;;;;;;;34.20;24.42;;;5.90;99.90;;;;;;6241451;22;20403;-78
2023/03/21 03:47:48;;;;;;;32.10;23.10;;;5.80;99.90;;;;;;6240318;23;20380;-79
2023/03/21 03:50:31;;;;;;;31.55;23.30;;;5.80;99.90;;;;;;6239998;22;20372;-78
2023/03/21 03:53:10;;;;;;;30.23;21.50;;;5.80;99.90;;;;;;6239841;23;20386;-78
2023/03/21 03:55:45;;;;;;;31.48;22.05;;;5.70;99.90;;;;;;6241667;22;20376;-78
2023/03/21 03:58:12;;;;;;;32.40;22.10;;;5.70;99.90;;;;;;6239688;22;20377;-78
2023/03/21 04:00:50;;;;;;;28.65;20.63;;;5.70;99.90;;;;;;6240666;23;20912;-78
2023/03/21 04:03:17;;;;;;;29.45;19.92;;;5.70;99.90;;;;;;6214451;22;20391;-78
2023/03/21 04:05:45;;;;;;;28.13;19.75;;;5.70;99.90;;;;;;6240266;23;20396;-78
2023/03/21 04:08:16;;;;;;;22.52;16.05;;;5.70;99.90;;;;;;6239146;22;20369;-78
2023/03/21 04:10:43;;;;;;;14.87;11.20;;;5.80;99.90;;;;;;6240300;23;20753;-78
2023/03/21 04:13:10;;;;;;;11.15;8.38;;;5.90;99.90;;;;;;6239452;22;20377;-78
2023/03/21 04:15:37;;;;;;;10.57;8.40;;;6.30;99.90;;;;;;6240545;23;20389;-78
2023/03/21 04:18:04;;;;;;;9.77;8.25;;;6.60;99.90;;;;;;6240884;22;20757;-78
2023/03/21 04:20:32;;;;;;;8.93;7.88;;;6.80;99.90;;;;;;6240716;23;20377;-78
2023/03/21 04:23:04;;;;;;;10.63;7.53;;;7.00;99.90;;;;;;6239371;22;20419;-78
2023/03/21 04:25:35;;;;;;;8.18;6.72;;;7.20;99.90;;;;;;6240262;23;20380;-78
2023/03/21 04:28:06;;;;;;;9.23;6.50;;;7.40;99.90;;;;;;6239567;22;20388;-80
2023/03/21 04:30:33;;;;;;;8.63;7.05;;;7.60;99.90;;;;;;6240460;23;20442;-80
2023/03/21 04:33:00;;;;;;;7.77;6.40;;;7.70;99.90;;;;;;6240138;23;20472;-77
2023/03/21 04:35:27;;;;;;;8.02;7.00;;;7.80;99.00;;;;;;6239502;23;20440;-77
2023/03/21 04:37:55;;;;;;;7.83;6.97;;;7.90;98.00;;;;;;6240304;23;20517;-77
2023/03/21 04:40:23;;;;;;;8.93;7.57;;;8.00;97.60;;;;;;6239422;22;20503;-80
2023/03/21 04:42:51;;;;;;;23.10;17.25;;;8.00;97.00;;;;;;6240075;23;20391;-77
2023/03/21 04:45:18;;;;;;;24.02;17.40;;;8.00;99.90;;;;;;6239395;22;20370;-77
2023/03/21 04:47:45;;;;;;;19.65;14.52;;;7.80;99.90;;;;;;6240709;23;20369;-77
2023/03/21 04:50:12;;;;;;;18.17;12.60;;;7.60;99.90;;;;;;6238398;22;20384;-77
2023/03/21 04:52:39;;;;;;;13.57;10.35;;;7.50;99.90;;;;;;6240462;23;20372;-77
2023/03/21 04:55:08;;;;;;;15.40;10.40;;;7.50;99.90;;;;;;6239589;22;20381;-77
2023/03/21 04:57:37;;;;;;;12.13;8.15;;;7.60;99.90;;;;;;6240399;23;20431;-78
2023/03/21 05:00:24;;;;;;;9.80;7.90;;;7.60;99.90;;;;;;6239707;22;20739;-78
2023/03/21 05:02:51;;;;;;;9.30;7.78;;;7.60;98.50;;;;;;6148602;23;20381;-78
2023/03/21 05:05:18;;;;;;;7.47;6.40;;;7.70;97.90;;;;;;6123588;23;20381;-78
2023/03/21 05:07:45;;;;;;;8.73;7.10;;;7.80;97.50;;;;;;6124542;23;20411;-78
2023/03/21 05:10:12;;;;;;;12.30;8.75;;;7.80;97.20;;;;;;6123998;23;20429;-78
2023/03/21 05:12:39;;;;;;;11.75;9.02;;;7.80;97.20;;;;;;6124680;23;20704;-78
2023/03/21 05:15:07;;;;;;;12.70;9.75;;;7.80;97.20;;;;;;6124132;23;20712;-78
2023/03/21 05:17:34;;;;;;;14.98;11.45;;;7.80;97.60;;;;;;6124550;23;20397;-78
2023/03/21 05:20:01;;;;;;;18.00;13.57;;;7.70;97.90;;;;;;6124391;23;20514;-78
2023/03/21 05:22:27;;;;;;;18.98;13.52;;;7.50;99.10;;;;;;6123716;23;20424;-79
2023/03/21 05:24:54;;;;;;;18.93;14.33;;;7.40;99.90;;;;;;6124596;23;20381;-78
2023/03/21 05:27:34;;;;;;;16.33;12.95;;;7.30;99.90;;;;;;6123323;23;20386;-78
2023/03/21 05:30:08;;;;;;;19.25;13.10;;;7.20;99.90;;;;;;6124989;23;20771;-78
2023/03/21 05:32:35;;;;;;;19.10;14.90;;;7.10;99.90;;;;;;6125345;23;20370;-78
2023/03/21 05:35:02;;;;;;;21.00;16.00;;;7.00;99.90;;;;;;6238135;23;20373;-78
2023/03/21 05:37:29;;;;;;;21.38;15.82;;;6.80;99.90;;;;;;6240312;22;20419;-78
2023/03/21 05:39:56;;;;;;;21.45;15.25;;;6.70;99.90;;;;;;6243472;22;20448;-79
2023/03/21 05:42:24;;;;;;;21.63;16.00;;;6.60;99.90;;;;;;6240426;22;20400;-78
2023/03/21 05:44:51;;;;;;;24.52;16.52;;;6.50;99.90;;;;;;6241992;23;20369;-78
2023/03/21 05:47:18;;;;;;;25.17;18.03;;;6.40;99.90;;;;;;6241288;22;20365;-77
2023/03/21 05:49:46;;;;;;;25.77;18.45;;;6.30;99.90;;;;;;6241721;23;20400;-78
2023/03/21 05:52:13;;;;;;;25.38;19.05;;;6.20;99.90;;;;;;6240739;22;20365;-78
2023/03/21 05:54:40;;;;;;;28.73;20.00;;;6.10;99.90;;;;;;6243079;22;20417;-78
2023/03/21 05:57:07;;;;;;;19.85;14.00;;;6.00;99.90;;;;;;6241663;23;20448;-78
2023/03/21 05:59:34;;;;;;;6.25;4.75;;;6.00;99.90;;;;;;6240608;22;20447;-79
2023/03/21 06:02:02;;;;;;;4.93;3.70;;;6.40;99.90;;;;;;6241403;23;20711;-78
2023/03/21 06:04:29;;;;;;;5.10;3.67;;;6.70;99.90;;;;;;6240968;22;20380;-78
2023/03/21 06:06:56;;;;;;;5.22;3.75;;;7.10;97.90;;;;;;6243082;22;20439;-78
2023/03/21 06:09:23;;;;;;;4.45;3.35;;;7.40;94.70;;;;;;6241108;22;20412;-78
2023/03/21 06:11:53;;;;;;;5.75;3.60;;;7.60;94.20;;;;;;6243042;22;20372;-78
2023/03/21 06:14:20;;;;;;;8.47;5.50;;;7.80;92.10;;;;;;6240288;22;20380;-79
2023/03/21 06:16:47;;;;;;;26.75;14.07;;;8.00;94.20;;;;;;6241772;23;20396;-78
2023/03/21 06:19:14;;;;;;;25.10;16.38;;;8.20;97.80;;;;;;6242220;22;20427;-78
2023/03/21 06:21:41;;;;;;;23.63;16.08;;;8.10;99.80;;;;;;6243032;22;20365;-78
2023/03/21 06:24:09;;;;;;;24.48;16.65;;;8.00;99.90;;;;;;6241463;23;20411;-78
2023/03/21 06:26:36;;;;;;;21.27;15.82;;;7.90;99.90;;;;;;6240562;22;20360;-78
2023/03/21 06:29:03;;;;;;;25.05;17.55;;;7.80;99.90;;;;;;6241587;23;20392;-78
2023/03/21 06:31:30;;;;;;;18.55;11.65;;;7.60;99.90;;;;;;6240611;22;20369;-78
2023/03/21 06:33:57;;;;;;;6.95;5.72;;;7.60;99.90;;;;;;6240461;23;20846;-78
2023/03/21 06:36:24;;;;;;;4.10;3.05;;;7.70;99.60;;;;;;6240347;22;20448;-79
2023/03/21 06:38:51;;;;;;;3.67;3.22;;;7.90;93.50;;;;;;6241095;23;20453;-79
2023/03/21 06:41:17;;;;;;;4.65;3.15;;;8.20;90.50;;;;;;6239912;22;20403;-78
2023/03/21 06:43:45;;;;;;;4.60;2.90;;;8.40;89.50;;;;;;6241629;23;20842;-78
2023/03/21 06:46:12;;;;;;;6.65;4.10;;;8.60;87.30;;;;;;6240292;23;20398;-78
2023/03/21 06:48:43;;;;;;;13.10;3.72;;;8.90;78.00;;;;;;6240264;22;20448;-78
2023/03/21 06:51:11;;;;;;;5.65;3.45;;;9.10;79.10;;;;;;6237703;23;20381;-78
2023/03/21 06:53:40;;;;;;;5.77;3.23;;;9.30;77.40;;;;;;6239769;22;20861;-78
2023/03/21 06:56:08;;;;;;;4.90;3.22;;;9.40;75.80;;;;;;6241495;23;20377;-77
2023/03/21 06:58:35;;;;;;;5.65;3.00;;;9.60;72.40;;;;;;6239494;22;20409;-78
2023/03/21 07:01:06;;;;;;;5.32;3.00;;;9.70;71.60;;;;;;6240523;23;20368;-78
2023/03/21 07:03:34;;;;;;;3.28;2.83;;;9.90;70.60;;;;;;6238711;22;20377;-79
2023/03/21 07:06:12;;;;;;;3.10;2.70;;;10.00;69.60;;;;;;6241319;23;20376;-78
2023/03/21 07:08:40;;;;;;;3.75;2.40;;;10.30;66.80;;;;;;6240159;22;20388;-79
2023/03/21 07:11:08;;;;;;;3.33;2.13;;;10.40;65.60;;;;;;6241160;23;20400;-79
2023/03/21 07:13:35;;;;;;;5.32;2.40;;;10.60;64.10;;;;;;6238950;22;20427;-78
2023/03/21 07:16:02;;;;;;;3.28;2.53;;;10.80;61.40;;;;;;6240198;22;20714;-78
2023/03/21 07:18:29;;;;;;;3.50;2.17;;;11.00;60.60;;;;;;6237587;22;20400;-78
2023/03/21 07:20:57;;;;;;;3.27;2.30;;;11.20;59.30;;;;;;6238239;23;20411;-78
2023/03/21 07:23:25;;;;;;;2.50;2.00;;;11.30;59.70;;;;;;6238750;22;20388;-79
2023/03/21 07:25:52;;;;;;;2.50;2.28;;;11.40;58.60;;;;;;6240434;23;20423;-78
2023/03/21 07:28:20;;;;;;;2.58;2.10;;;11.50;60.20;;;;;;6240613;23;20742;-79
2023/03/21 07:30:53;;;;;;;2.42;2.20;;;11.60;60.50;;;;;;6239963;22;20365;-78
2023/03/21 07:33:21;;;;;;;3.47;2.25;;;11.70;59.00;;;;;;6240943;23;20385;-78
2023/03/21 07:35:54;;;;;;;2.25;1.88;;;11.90;57.40;;;;;;6239813;23;21252;-79
2023/03/21 07:38:21;;;;;;;3.13;2.20;;;12.00;56.60;;;;;;6240306;23;20396;-78
2023/03/21 07:40:48;;;;;;;4.20;2.38;;;12.20;56.60;;;;;;6239668;22;20365;-78
2023/03/21 07:43:16;;;;;;;4.93;2.65;;;12.40;56.00;;;;;;6240705;23;20365;-78
2023/03/21 07:45:47;;;;;;;4.40;2.38;;;12.50;54.90;;;;;;6239751;22;20361;-78
2023/03/21 07:48:16;;;;;;;2.75;2.30;;;12.60;54.60;;;;;;6240559;23;20396;-78
2023/03/21 07:50:43;;;;;;;3.67;2.25;;;12.70;53.70;;;;;;6239415;22;20415;-78
2023/03/21 07:53:10;;;;;;;4.82;2.40;;;12.80;53.60;;;;;;6240714;23;20505;-78
2023/03/21 07:55:37;;;;;;;2.90;1.70;;;12.90;53.60;;;;;;6239685;22;20361;-78
2023/03/21 07:58:04;;;;;;;2.20;2.00;;;12.90;54.40;;;;;;6240457;23;20365;-79
2023/03/21 08:00:32;;;;;;;4.28;2.38;;;13.00;53.10;;;;;;6239673;22;20904;-79
2023/03/21 08:02:59;;;;;;;3.38;2.00;;;13.10;52.60;;;;;;6239627;23;20373;-78
2023/03/21 08:05:30;;;;;;;4.20;2.65;;;13.20;52.80;;;;;;6239642;22;20750;-79
2023/03/21 08:07:56;;;;;;;4.00;2.13;;;13.30;53.50;;;;;;6241425;22;20360;-78
2023/03/21 08:10:24;;;;;;;2.70;2.35;;;13.40;52.90;;;;;;6241945;22;20381;-79
2023/03/21 08:12:51;;;;;;;4.47;2.90;;;13.50;53.40;;;;;;6239450;22;20432;-79
2023/03/21 08:15:18;;;;;;;4.80;2.50;;;13.60;53.60;;;;;;6240274;23;20365;-79
2023/03/21 08:17:45;;;;;;;2.47;2.10;;;13.70;53.80;;;;;;6239526;22;20675;-79
2023/03/21 08:20:16;;;;;;;4.20;3.00;;;13.80;54.00;;;;;;6240451;23;20377;-78
2023/03/21 08:22:44;;;;;;;4.97;2.95;;;13.90;52.60;;;;;;6239297;22;20711;-79
2023/03/21 08:25:12;;;;;;;3.60;2.87;;;14.10;52.80;;;;;;6240375;23;20433;-78
2023/03/21 08:27:41;;;;;;;9.10;6.80;;;14.20;53.00;;;;;;6239338;22;20381;-79
2023/03/21 08:30:11;;;;;;;6.63;4.93;;;14.20;52.40;;;;;;6240461;23;20381;-79
2023/03/21 08:32:39;;;;;;;4.40;2.60;;;14.20;52.70;;;;;;6214095;22;20432;-79
2023/03/21 08:35:09;;;;;;;3.85;3.03;;;14.30;52.00;;;;;;6240506;23;20373;-78
2023/03/21 08:37:40;;;;;;;5.38;4.15;;;14.40;51.60;;;;;;6239273;22;20373;-79
2023/03/21 08:40:12;;;;;;;8.25;5.80;;;14.50;50.60;;;;;;6240563;23;20385;-78
2023/03/21 08:42:42;;;;;;;6.95;6.00;;;14.60;50.70;;;;;;6240539;22;20377;-78
2023/03/21 08:45:11;;;;;;;7.50;5.55;;;14.60;51.30;;;;;;6240516;23;20695;-78
2023/03/21 08:47:39;;;;;;;6.03;4.90;;;14.70;52.00;;;;;;6239497;22;20447;-78
2023/03/21 08:50:10;;;;;;;6.53;4.45;;;14.80;52.20;;;;;;6240046;23;20396;-78
2023/03/21 08:52:36;;;;;;;5.85;4.82;;;14.90;52.20;;;;;;6239811;22;20361;-78
2023/03/21 08:55:04;;;;;;;6.15;4.72;;;15.10;51.70;;;;;;6240496;23;20421;-78
2023/03/21 08:57:31;;;;;;;6.07;4.80;;;15.20;51.20;;;;;;6239597;22;20388;-79
2023/03/21 08:59:58;;;;;;;5.80;4.63;;;15.30;50.70;;;;;;6239940;23;20730;-78
2023/03/21 09:02:25;;;;;;;7.78;5.30;;;15.50;51.10;;;;;;6240127;23;20366;-78
2023/03/21 09:04:53;;;;;;;6.03;4.95;;;15.70;50.60;;;;;;6238698;22;20404;-78
2023/03/21 09:07:21;;;;;;;20.02;15.05;;;15.80;50.10;;;;;;6240619;23;20426;-79
2023/03/21 09:09:51;;;;;;;16.98;13.13;;;15.80;52.40;;;;;;6239464;22;20365;-79
2023/03/21 09:12:40;;;;;;;18.42;14.18;;;15.80;52.80;;;;;;6242496;22;20365;-79
2023/03/21 09:15:08;;;;;;;20.17;15.20;;;15.80;52.70;;;;;;6242053;23;20399;-78
2023/03/21 09:17:35;;;;;;;26.30;16.83;;;15.80;53.60;;;;;;6240307;22;20406;-79
2023/03/21 09:20:10;;;;;;;19.80;16.00;;;15.90;54.20;;;;;;6241625;23;20368;-78
2023/03/21 09:22:38;;;;;;;18.88;15.45;;;15.90;54.20;;;;;;6242009;22;20695;-79
2023/03/21 09:25:10;;;;;;;17.58;14.77;;;16.10;55.20;;;;;;6241768;23;20672;-78
2023/03/21 09:27:37;;;;;;;19.35;16.60;;;16.20;54.20;;;;;;6240593;22;20440;-79
2023/03/21 09:30:06;;;;;;;19.48;16.42;;;16.30;53.70;;;;;;6241883;23;20412;-78
2023/03/21 09:32:33;;;;;;;19.70;16.17;;;16.30;54.90;;;;;;6241269;23;20730;-79
2023/03/21 09:35:01;;;;;;;19.48;16.25;;;16.40;55.80;;;;;;6242176;23;20365;-78
2023/03/21 09:37:28;;;;;;;51.72;21.33;;;16.40;55.10;;;;;;6240096;23;20842;-78
2023/03/21 09:39:57;;;;;;;20.97;17.90;;;16.50;54.40;;;;;;6240993;22;20361;-79
2023/03/21 09:42:55;;;;;;;22.83;17.13;;;16.60;55.10;;;;;;6241780;23;20385;-78
2023/03/21 09:46:10;;;;;;;22.92;18.55;;;16.60;55.10;;;;;;6219128;22;20746;-78
2023/03/21 09:48:49;;;;;;;21.80;18.15;;;16.80;56.60;;;;;;6067250;23;20753;-78
2023/03/21 09:51:27;;;;;;;25.60;20.45;;;16.90;58.10;;;;;;6091018;23;20794;-78
2023/03/21 09:53:56;;;;;;;24.55;20.90;;;17.00;56.60;;;;;;6177928;23;20377;-78
2023/03/21 09:56:24;;;;;;;23.58;19.48;;;17.10;55.40;;;;;;6240792;22;20684;-78
2023/03/21 09:58:58;;;;;;;22.38;18.48;;;17.10;57.20;;;;;;6241515;23;20372;-78
2023/03/21 10:01:31;;;;;;;27.75;22.05;;;17.30;58.50;;;;;;6240939;22;20373;-78
2023/03/21 10:04:05;;;;;;;24.75;20.02;;;17.30;55.50;;;;;;6241499;23;20380;-78
2023/03/21 10:06:38;;;;;;;22.23;19.42;;;17.20;53.90;;;;;;6240383;22;20403;-78
2023/03/21 10:09:22;;;;;;;23.90;18.52;;;17.30;56.00;;;;;;6241813;23;20365;-78
2023/03/21 10:12:15;;;;;;;24.50;20.83;;;17.40;56.20;;;;;;6240415;22;20365;-79
2023/03/21 10:14:48;;;;;;;25.55;21.30;;;17.50;54.70;;;;;;6240241;22;20453;-78
2023/03/21 10:17:32;;;;;;;25.45;21.63;;;17.50;54.60;;;;;;6241598;23;20392;-79
2023/03/21 10:20:16;;;;;;;25.30;19.50;;;17.50;54.10;;;;;;6240657;22;20452;-77
2023/03/21 10:22:46;;;;;;;22.77;18.58;;;17.50;54.10;;;;;;6240889;22;20377;-77
2023/03/21 10:25:18;;;;;;;25.73;20.10;;;17.60;56.40;;;;;;6241107;23;20452;-77
2023/03/21 10:27:47;;;;;;;25.15;20.45;;;17.70;56.60;;;;;;6241012;22;20461;-77
2023/03/21 10:30:35;;;;;;;23.48;19.83;;;17.70;53.70;;;;;;6240587;23;20848;-79
2023/03/21 10:33:08;;;;;;;21.40;17.27;;;17.70;56.30;;;;;;6238932;23;20365;-77
2023/03/21 10:35:38;;;;;;;22.15;18.45;;;17.80;57.00;;;;;;6239385;23;20776;-78
2023/03/21 10:38:14;;;;;;;21.23;17.23;;;18.00;56.90;;;;;;6238952;22;20377;-78
2023/03/21 10:40:41;;;;;;;22.63;18.63;;;18.20;54.20;;;;;;6240571;22;20750;-78
2023/03/21 10:43:19;;;;;;;22.52;19.08;;;18.30;53.80;;;;;;6238406;23;20444;-77
2023/03/21 10:45:47;;;;;;;23.02;19.55;;;18.20;52.00;;;;;;6238529;22;20377;-78
2023/03/21 10:48:14;;;;;;;20.42;17.98;;;18.20;51.60;;;;;;6240958;23;20444;-78
2023/03/21 10:50:45;;;;;;;25.02;19.60;;;18.20;52.50;;;;;;6240652;23;20377;-78
2023/03/21 10:53:41;;;;;;;19.50;16.30;;;18.10;52.50;;;;;;6239674;23;21283;-77
2023/03/21 10:56:10;;;;;;;22.17;19.05;;;18.20;54.30;;;;;;6233341;22;20751;-77
2023/03/21 10:58:43;;;;;;;23.40;18.70;;;18.30;52.40;;;;;;6241113;23;20393;-77
2023/03/21 11:01:24;;;;;;;22.65;18.90;;;18.20;51.40;;;;;;6239905;22;20388;-77
2023/03/21 11:03:56;;;;;;;27.40;20.50;;;18.20;52.00;;;;;;6239738;22;20373;-78
2023/03/21 11:06:32;;;;;;;26.55;21.67;;;18.30;52.60;;;;;;6239577;23;20452;-78
2023/03/21 11:09:13;;;;;;;23.97;19.83;;;18.50;52.10;;;;;;6238753;22;20942;-77
2023/03/21 11:12:13;;;;;;;21.27;17.98;;;18.50;49.30;;;;;;6240530;23;20373;-78
2023/03/21 11:14:43;;;;;;;23.73;19.23;;;18.50;51.90;;;;;;6143779;22;20419;-78
2023/03/21 11:17:16;;;;;;;22.23;19.10;;;18.60;51.80;;;;;;6242179;22;20377;-78
2023/03/21 11:20:09;;;;;;;24.70;20.65;;;18.50;50.20;;;;;;6239727;22;20869;-78
2023/03/21 11:22:42;;;;;;;20.60;17.37;;;18.60;50.60;;;;;;6237485;22;20461;-78
2023/03/21 11:25:24;;;;;;;22.08;18.95;;;18.70;50.80;;;;;;6238726;23;20380;-78
2023/03/21 11:27:53;;;;;;;24.80;20.30;;;19.00;52.10;;;;;;6238763;22;20431;-78
2023/03/21 11:30:26;;;;;;;23.98;18.83;;;19.10;49.10;;;;;;6240950;23;20369;-78
2023/03/21 11:33:02;;;;;;;21.37;17.80;;;19.00;49.30;;;;;;6238357;23;20363;-79
2023/03/21 11:35:37;;;;;;;35.80;25.77;;;19.00;50.50;;;;;;6239104;22;20381;-79
2023/03/21 11:38:22;;;;;;;22.37;18.47;;;19.10;50.30;;;;;;6240379;23;20380;-78
2023/03/21 11:40:55;;;;;;;29.75;21.83;;;19.00;48.60;;;;;;6238431;22;20365;-78
2023/03/21 11:43:26;;;;;;;25.35;20.30;;;19.10;50.90;;;;;;6215651;23;20372;-78
2023/03/21 11:46:05;;;;;;;20.02;17.08;;;19.20;49.20;;;;;;6238707;22;20353;-77
2023/03/21 11:48:54;;;;;;;21.63;16.88;;;19.20;48.60;;;;;;6239527;22;20393;-78
2023/03/21 11:51:31;;;;;;;21.03;18.20;;;19.30;49.50;;;;;;6240381;23;20771;-78
2023/03/21 11:54:19;;;;;;;20.08;16.65;;;19.40;49.40;;;;;;6240120;22;20357;-79
2023/03/21 11:56:50;;;;;;;22.48;18.17;;;19.50;48.60;;;;;;6239698;22;20373;-78
2023/03/21 11:59:17;;;;;;;18.57;16.57;;;19.40;47.70;;;;;;6241034;23;20746;-79
2023/03/21 12:02:08;;;;;;;20.17;17.02;;;19.30;47.90;;;;;;6239375;22;20405;-79
2023/03/21 12:04:40;;;;;;;19.80;16.55;;;19.30;47.40;;;;;;6239384;22;20369;-80
2023/03/21 12:07:25;;;;;;;17.60;15.70;;;19.40;48.30;;;;;;6242315;22;20373;-78
2023/03/21 12:10:14;;;;;;;18.35;15.30;;;19.50;48.20;;;;;;6239356;22;20427;-77
2023/03/21 12:12:53;;;;;;;22.65;18.83;;;19.60;46.20;;;;;;6239221;22;20431;-78
2023/03/21 12:15:36;;;;;;;21.05;17.60;;;19.50;47.00;;;;;;6240399;23;20431;-78
2023/03/21 12:18:43;;;;;;;19.88;16.80;;;19.30;48.30;;;;;;6240909;22;20385;-79
2023/03/21 12:21:22;;;;;;;20.77;17.27;;;19.50;48.30;;;;;;6239793;22;20365;-78
2023/03/21 12:24:12;;;;;;;20.27;17.30;;;19.70;48.70;;;;;;6239373;22;20411;-79
2023/03/21 12:27:11;;;;;;;22.30;19.00;;;19.90;48.50;;;;;;6240037;23;20751;-78
2023/03/21 12:29:59;;;;;;;22.20;18.73;;;20.00;46.90;;;;;;6232255;23;20369;-78
2023/03/21 12:32:51;;;;;;;23.63;18.63;;;20.00;46.50;;;;;;6239524;22;20760;-78
2023/03/21 12:35:31;;;;;;;24.73;20.23;;;20.00;47.10;;;;;;6239621;22;20376;-78
2023/03/21 12:38:24;;;;;;;20.75;18.30;;;19.90;46.70;;;;;;6240411;23;20695;-78
2023/03/21 12:41:32;;;;;;;20.55;17.83;;;20.00;46.20;;;;;;6239099;22;20365;-79
2023/03/21 12:44:14;;;;;;;21.33;17.60;;;20.00;47.80;;;;;;6219416;22;20414;-79
2023/03/21 12:46:44;;;;;;;21.17;17.85;;;20.30;46.20;;;;;;6242113;22;20444;-77
2023/03/21 12:49:25;;;;;;;18.58;16.55;;;20.50;45.70;;;;;;6242406;23;20375;-77
2023/03/21 12:51:57;;;;;;;21.05;17.67;;;20.60;47.00;;;;;;6242387;22;20405;-77
2023/03/21 12:54:33;;;;;;;21.27;17.33;;;20.80;45.40;;;;;;6242150;23;20684;-80
2023/03/21 12:57:25;;;;;;;21.30;17.25;;;20.80;44.80;;;;;;6242698;22;20437;-78
2023/03/21 13:00:43;;;;;;;18.35;16.30;;;20.90;44.40;;;;;;6241452;22;20691;-78
2023/03/21 13:03:20;;;;;;;18.30;16.03;;;20.90;44.80;;;;;;6145029;22;20360;-78
2023/03/21 13:06:04;;;;;;;18.75;15.60;;;21.00;44.50;;;;;;6242388;22;20427;-80
2023/03/21 13:08:37;;;;;;;19.25;16.23;;;21.00;44.40;;;;;;6242200;23;20424;-78
2023/03/21 13:11:06;;;;;;;19.97;16.97;;;21.10;44.40;;;;;;6241431;22;20372;-78
2023/03/21 13:13:36;;;;;;;18.90;15.40;;;21.20;43.80;;;;;;6242094;23;20399;-78
2023/03/21 13:16:15;;;;;;;22.08;17.83;;;21.20;43.80;;;;;;6240608;22;20392;-81
2023/03/21 13:18:55;;;;;;;19.92;15.68;;;21.00;42.60;;;;;;6241817;23;20373;-78
2023/03/21 13:21:55;;;;;;;17.88;15.65;;;21.00;43.80;;;;;;6241008;23;20372;-79
2023/03/21 13:24:32;;;;;;;18.55;16.35;;;20.90;43.70;;;;;;6241368;23;20368;-78
2023/03/21 13:27:27;;;;;;;19.23;16.38;;;20.70;42.70;;;;;;6240839;22;20435;-78
2023/03/21 13:30:01;;;;;;;17.98;15.00;;;20.40;43.80;;;;;;6242018;23;20376;-78
2023/03/21 13:32:39;;;;;;;17.67;15.65;;;20.40;44.50;;;;;;6241395;22;20702;-78
2023/03/21 13:35:26;;;;;;;16.13;13.45;;;20.40;44.00;;;;;;6240859;22;20407;-78
2023/03/21 13:38:00;;;;;;;19.42;14.45;;;20.40;44.70;;;;;;6242215;23;20372;-78
2023/03/21 13:40:49;;;;;;;15.35;13.75;;;20.50;44.10;;;;;;6242541;22;20373;-78
2023/03/21 13:43:39;;;;;;;17.77;14.82;;;20.60;44.60;;;;;;6241181;22;20377;-78
2023/03/21 13:46:26;;;;;;;13.88;11.93;;;20.60;42.80;;;;;;6241310;22;20419;-79
2023/03/21 13:49:00;;;;;;;16.63;12.87;;;20.70;43.50;;;;;;6167141;23;20752;-78
2023/03/21 13:51:27;;;;;;;15.48;13.88;;;20.80;43.60;;;;;;6241306;22;20376;-79
2023/03/21 13:54:02;;;;;;;16.27;13.18;;;20.80;42.90;;;;;;6241697;23;20452;-78
2023/03/21 13:56:47;;;;;;;18.13;14.85;;;20.90;42.50;;;;;;6241057;22;20368;-78
2023/03/21 13:59:36;;;;;;;13.97;11.60;;;20.80;42.00;;;;;;6241520;22;20381;-79
2023/03/21 14:02:12;;;;;;;14.55;12.70;;;20.90;43.10;;;;;;6241463;23;20681;-79
2023/03/21 14:04:40;;;;;;;15.52;13.70;;;20.90;42.60;;;;;;6240852;23;20369;-79
2023/03/21 14:07:29;;;;;;;15.47;13.70;;;20.80;42.30;;;;;;6240610;22;20713;-79
2023/03/21 14:10:04;;;;;;;15.83;12.73;;;20.70;43.00;;;;;;6241518;23;20494;-79
2023/03/21 14:12:41;;;;;;;15.27;12.52;;;20.80;43.70;;;;;;6240881;22;20381;-79
2023/03/21 14:15:19;;;;;;;14.75;13.20;;;20.90;42.30;;;;;;6241496;23;20495;-79
2023/03/21 14:17:58;;;;;;;11.57;10.07;;;20.90;42.60;;;;;;6241034;22;20423;-78
2023/03/21 14:20:36;;;;;;;13.90;12.13;;;21.00;43.20;;;;;;6240649;22;20722;-79
2023/03/21 14:23:05;;;;;;;16.80;14.33;;;21.00;42.70;;;;;;6241263;23;20427;-79
2023/03/21 14:25:39;;;;;;;12.68;10.70;;;20.90;42.00;;;;;;6240602;22;20385;-80
2023/03/21 14:28:19;;;;;;;16.38;13.85;;;20.90;43.00;;;;;;6241464;23;20369;-78
2023/03/21 14:30:54;;;;;;;15.80;13.00;;;20.90;42.00;;;;;;6240390;22;20361;-78
2023/03/21 14:33:31;;;;;;;12.70;11.38;;;20.70;42.00;;;;;;6241836;23;20869;-78
2023/03/21 14:36:02;;;;;;;15.20;13.20;;;20.70;43.10;;;;;;6240294;22;20787;-79
2023/03/21 14:38:35;;;;;;;14.18;11.73;;;20.60;43.10;;;;;;6241396;23;20369;-79
2023/03/21 14:41:03;;;;;;;13.75;11.95;;;20.50;43.50;;;;;;6240647;22;20377;-79
2023/03/21 14:43:32;;;;;;;14.65;12.93;;;20.50;43.80;;;;;;6241488;23;20839;-78
2023/03/21 14:46:00;;;;;;;15.93;12.68;;;20.50;43.70;;;;;;6240401;22;20365;-78
2023/03/21 14:48:32;;;;;;;14.73;12.30;;;20.60;43.30;;;;;;6241635;23;20369;-80
2023/03/21 14:51:07;;;;;;;13.70;11.90;;;20.70;43.20;;;;;;6240576;22;20429;-79
2023/03/21 14:53:39;;;;;;;16.43;13.70;;;20.80;42.70;;;;;;6240972;23;20381;-78
2023/03/21 14:56:15;;;;;;;14.43;12.90;;;20.70;42.30;;;;;;6241023;22;20746;-78
2023/03/21 14:58:44;;;;;;;13.32;10.82;;;20.70;42.90;;;;;;6239993;23;20373;-80
2023/03/21 15:01:35;;;;;;;14.13;11.13;;;20.60;43.00;;;;;;6241199;22;20440;-78
2023/03/21 15:04:05;;;;;;;12.67;10.97;;;20.70;43.30;;;;;;6240355;22;20434;-78
2023/03/21 15:06:34;;;;;;;10.20;8.70;;;20.50;42.70;;;;;;6240691;23;20393;-78
2023/03/21 15:09:03;;;;;;;14.35;11.98;;;20.70;43.50;;;;;;6239481;22;20392;-78
2023/03/21 15:11:33;;;;;;;16.33;12.82;;;20.70;42.90;;;;;;6240925;23;20428;-78
2023/03/21 15:14:03;;;;;;;13.88;12.38;;;20.70;42.10;;;;;;6239854;22;20373;-78
2023/03/21 15:16:31;;;;;;;12.60;10.88;;;20.50;42.20;;;;;;6240844;23;20369;-79
2023/03/21 15:19:00;;;;;;;15.60;12.05;;;20.30;42.70;;;;;;6239902;22;20370;-77
2023/03/21 15:21:30;;;;;;;15.18;13.45;;;20.30;42.90;;;;;;6240894;23;20394;-76
2023/03/21 15:24:14;;;;;;;14.48;12.93;;;20.20;43.20;;;;;;6241692;22;20368;-78
2023/03/21 15:26:46;;;;;;;17.30;14.80;;;20.00;42.90;;;;;;6242556;22;20831;-78
2023/03/21 15:29:15;;;;;;;18.60;15.45;;;20.00;43.50;;;;;;6240235;23;20440;-78
2023/03/21 15:31:42;;;;;;;28.98;21.48;;;19.90;43.80;;;;;;6240852;23;20365;-79
2023/03/21 15:34:22;;;;;;;19.13;14.80;;;19.80;43.40;;;;;;6240195;22;20368;-79
2023/03/21 15:36:56;;;;;;;16.37;13.43;;;19.70;44.20;;;;;;6239575;22;20385;-80